Portada
METAR-TAF:

METAR-TAF

Aeroports :

Bullsbrook, Austràlia

latitud: 31-40S, longitud: 116-01E, altitud: 45 m

Observació

L'informe es va fer fa 14 minuts, a les 20:00 UTC
Vent 3 kt del Sud/Sud-Est
Temperatura 25°C
Humitat 28%
Pressió 1015 hPa
Visibilitat 10 km o més

METAR: YPEA 132000Z AUTO 15003KT 9999 // NCD 25/05 Q1015

Hora: 04:14 (20:14 UTC)

Pronòstic

L'informe es va fer fa 3 hores i 11 minuts, a les 17:03 UTC
Pronòstic vàlid del 13 a les 18 UTC al 14 a les 12 UTC
Vent 7 kt del Est/Sud-Est
Visibilitat 10 km o més
sense núvols per sota de 1500 mi sense presència de cumulonimbus.
A partir de les 14 a les 0000 UTC
Vent 8 kt del Est/Nord-Est
Visibilitat 10 km o més
sense núvols per sota de 1500 mi sense presència de cumulonimbus.
A partir de les 14 a les 0500 UTC
Vent 15 kt del Sud-Oest
Visibilitat 10 km o més
sense núvols per sota de 1500 mi sense presència de cumulonimbus.

TAF: YPEA 131703Z 1318/1412 12007KT CAVOK FM140000 06008KT CAVOK FM140500 22015KT CAVOK

Observacions i pronòstics meteorològics de més de 4000 aeroports (METAR i TAF).

Les estacions disponibles són els punts grocs i vermells al mapa.

Posi el ratolí al punt desitjat per veure el nom de l'estació.

Feu clic per veure les observacions i els pronòstics meteorològics.

Per canviar el mapa: feu clic els botons verds amb una creu de color negre per apropar; al botó verd amb un guió per allunyar la imatge; o en les fletxes verdes per a mapes adjacents.


METAR-TAF: